createdAt,value
2023-01-07T00:09:22.652Z,653.22897
2023-01-07T00:24:24.886Z,561.8393
2023-01-07T00:39:27.113Z,544.10612
2023-01-07T00:54:29.307Z,494.60736
2023-01-07T01:09:31.619Z,452.49295
2023-01-07T01:24:33.846Z,441.47033
2023-01-07T01:39:36.024Z,465.60867
2023-01-07T01:54:38.307Z,663.03353
2023-01-07T02:09:40.547Z,761.98219
2023-01-07T02:24:42.819Z,694.97907
2023-01-07T02:39:45.088Z,690.22824
2023-01-07T02:54:47.491Z,594.4439
2023-01-07T03:09:49.748Z,546.20854
2023-01-07T03:24:52.043Z,570.91585
2023-01-07T03:39:54.356Z,558.28897
2023-01-07T03:54:56.570Z,533.83223
2023-01-07T04:09:58.776Z,523.55102
2023-01-07T04:25:01.072Z,517.04015
2023-01-07T04:40:03.325Z,502.34109
2023-01-07T04:55:05.574Z,514.78069
2023-01-07T05:10:07.842Z,516.6622
2023-01-07T05:25:10.116Z,506.29936
2023-01-07T05:40:12.385Z,492.19632
2023-01-07T05:55:14.599Z,509.21751
2023-01-07T06:10:16.828Z,564.53182
2023-01-07T06:25:19.024Z,549.60641
2023-01-07T06:40:21.249Z,564.53182
2023-01-07T06:55:23.492Z,604.61402
2023-01-07T07:10:25.695Z,599.48583
2023-01-07T07:25:27.870Z,632.19478
2023-01-07T07:40:30.282Z,647.24703
2023-01-07T07:55:32.723Z,675.71103
2023-01-07T08:10:35.178Z,677.00549
2023-01-07T08:25:37.415Z,640.79217
2023-01-07T08:40:39.895Z,653.22897
2023-01-07T08:55:42.106Z,697.72331
2023-01-07T09:10:44.379Z,704.67967
2023-01-07T09:25:46.714Z,761.98219
2023-01-07T09:40:49.077Z,769.02224
2023-01-07T09:56:10.738Z,811.35371
2023-01-07T10:11:14.916Z,829.42605
2023-01-07T10:26:17.148Z,857.05683
2023-01-07T10:41:19.404Z,882.17007
2023-01-07T10:56:21.695Z,929.08783
2023-01-07T11:11:23.939Z,990.20344
2023-01-07T11:26:26.241Z,996.47937
2023-01-07T11:41:28.521Z,948.39192
2023-01-07T11:56:30.757Z,1010.71479
2023-01-07T12:11:33.004Z,1063.91028
2023-01-07T12:26:35.222Z,1123.01638
2023-01-07T12:41:37.506Z,1112.42189
2023-01-07T12:56:39.866Z,1025.36282
2023-01-07T13:11:42.111Z,938.95206
2023-01-07T13:26:44.309Z,998.58907
2023-01-07T13:41:46.740Z,1094.35472
2023-01-07T13:56:49.045Z,1132.90683
2023-01-07T14:11:51.408Z,1158.88666
2023-01-07T14:26:53.678Z,1069.53943
2023-01-07T14:41:56.014Z,953.50454
2023-01-07T14:56:58.219Z,893.30858
2023-01-07T15:12:00.652Z,851.38437
2023-01-07T15:27:02.883Z,814.1547
2023-01-07T15:42:05.092Z,827.00225
2023-01-07T15:57:07.657Z,887.14783
2023-01-07T16:12:09.953Z,853.95342
2023-01-07T16:27:12.217Z,833.33383
2023-01-07T16:42:14.590Z,770.27812
2023-01-07T16:57:16.830Z,791.38752
2023-01-07T17:12:19.071Z,778.32833
2023-01-07T17:27:21.306Z,769.85904
2023-01-07T17:42:23.535Z,730.15878
2023-01-07T17:57:25.754Z,763.21517
2023-01-07T18:12:27.967Z,682.23333
2023-01-07T18:27:30.452Z,765.27903
2023-01-07T18:42:32.686Z,905.3108
2023-01-07T18:57:35.200Z,849.34023
2023-01-07T19:12:37.432Z,717.55706
2023-01-07T19:27:39.709Z,609.83071
2023-01-07T19:42:42.102Z,849.34023
2023-01-07T19:57:44.352Z,965.87081
2023-01-07T20:12:46.729Z,847.30589
2023-01-07T20:27:49.017Z,959.32253
2023-01-07T20:42:51.279Z,958.67259
2023-01-07T20:57:53.509Z,1087.62541
2023-01-07T21:12:55.909Z,1272.48252
2023-01-07T21:27:58.133Z,1566.1322
2023-01-07T21:43:00.326Z,1682.5213
2023-01-07T21:58:02.593Z,1464.80383
2023-01-07T22:13:04.863Z,1651.10901
2023-01-07T22:28:07.139Z,1665.68619
2023-01-07T22:43:09.535Z,1837.66283
2023-01-07T22:58:11.774Z,1396.84158
2023-01-07T23:13:14.042Z,1318.73303
2023-01-07T23:28:16.386Z,1113.29712
2023-01-07T23:43:18.802Z,927.26131
2023-01-07T23:58:21.019Z,984.69083
